Time;durP1;ratioP1;P1;durP2;ratioP2;P2;SDS_P1;SDS_P2;PMS_P1;PMS_P2;Temp;Humidity;BMP_temperature;BMP_pressure;BME280_temperature;BME280_humidity;BME280_pressure;Samples;Min_cycle;Max_cycle;Signal;HPM_P1;HPM_P2
2021/10/08 00:02:08;;;;;;;2.28;2.10;;;;;;;;;;5035955;28;20202;-78
2021/10/08 00:04:36;;;;;;;1.65;1.55;;;;;;;;;;5035264;28;20187;-78
2021/10/08 00:07:03;;;;;;;1.90;1.80;;;;;;;;;;5035193;28;20226;-78
2021/10/08 00:09:31;;;;;;;3.63;2.33;;;;;;;;;;5034392;28;20199;-78
2021/10/08 00:11:59;;;;;;;2.20;2.00;;;;;;;;;;5035003;28;20634;-78
2021/10/08 00:14:27;;;;;;;1.85;1.75;;;;;;;;;;5034532;28;20201;-78
2021/10/08 00:16:55;;;;;;;2.45;2.25;;;;;;;;;;5034782;28;20310;-77
2021/10/08 00:19:25;;;;;;;2.28;2.08;;;;;;;;;;5034493;28;20303;-77
2021/10/08 00:21:52;;;;;;;2.47;2.28;;;;;;;;;;5032907;28;20191;-77
2021/10/08 00:24:20;;;;;;;1.73;1.63;;;;;;;;;;5034338;28;20206;-77
2021/10/08 00:26:47;;;;;;;2.30;2.10;;;;;;;;;;5034017;28;20708;-78
2021/10/08 00:29:15;;;;;;;2.65;2.45;;;;;;;;;;5014883;28;20187;-76
2021/10/08 00:31:42;;;;;;;2.95;2.05;;;;;;;;;;5014740;28;20191;-78
2021/10/08 00:34:10;;;;;;;2.22;2.03;;;;;;;;;;5014278;28;20210;-80
2021/10/08 00:36:39;;;;;;;2.28;2.15;;;;;;;;;;5015477;28;20284;-76
2021/10/08 00:39:06;;;;;;;2.90;2.70;;;;;;;;;;5014872;28;20187;-77
2021/10/08 00:41:34;;;;;;;2.70;2.50;;;;;;;;;;5014291;28;20642;-77
2021/10/08 00:44:02;;;;;;;2.63;2.42;;;;;;;;;;5019752;28;20217;-78
2021/10/08 00:46:29;;;;;;;2.00;1.90;;;;;;;;;;5033570;28;20208;-77
2021/10/08 00:48:57;;;;;;;2.72;1.95;;;;;;;;;;5033415;28;20731;-77
2021/10/08 00:51:26;;;;;;;2.08;1.63;;;;;;;;;;5020934;28;20195;-77
2021/10/08 00:53:55;;;;;;;1.67;1.58;;;;;;;;;;5014314;28;20207;-78
2021/10/08 00:56:23;;;;;;;1.98;1.50;;;;;;;;;;5013837;28;20207;-77
2021/10/08 00:58:51;;;;;;;1.50;1.40;;;;;;;;;;5014282;28;20241;-81
2021/10/08 01:01:18;;;;;;;1.85;1.75;;;;;;;;;;5014082;28;20194;-78
2021/10/08 01:03:46;;;;;;;1.40;1.30;;;;;;;;;;5014236;28;20207;-78
2021/10/08 01:06:14;;;;;;;1.80;1.40;;;;;;;;;;5013748;28;20584;-78
2021/10/08 01:08:42;;;;;;;3.30;1.90;;;;;;;;;;5013904;28;20219;-77
2021/10/08 01:11:11;;;;;;;1.40;1.30;;;;;;;;;;5012773;28;20206;-79
2021/10/08 01:13:38;;;;;;;1.80;1.30;;;;;;;;;;5013741;28;20199;-78
2021/10/08 01:16:06;;;;;;;1.83;1.73;;;;;;;;;;5013512;28;20211;-77
2021/10/08 01:18:34;;;;;;;1.55;1.45;;;;;;;;;;5025920;28;20241;-78
2021/10/08 01:21:02;;;;;;;1.45;1.35;;;;;;;;;;5033189;28;20206;-78
2021/10/08 01:23:30;;;;;;;1.75;1.65;;;;;;;;;;4992852;28;20694;-77
2021/10/08 01:25:57;;;;;;;1.80;1.70;;;;;;;;;;5028736;28;20194;-79
2021/10/08 01:28:25;;;;;;;1.35;1.25;;;;;;;;;;5032756;28;20225;-78
2021/10/08 01:30:53;;;;;;;1.67;1.58;;;;;;;;;;5033342;28;20293;-78
2021/10/08 01:33:21;;;;;;;1.70;1.60;;;;;;;;;;5032396;28;20586;-78
2021/10/08 01:35:48;;;;;;;1.92;1.83;;;;;;;;;;5032115;28;20202;-77
2021/10/08 01:38:17;;;;;;;2.10;2.00;;;;;;;;;;5026772;28;20227;-78
2021/10/08 01:40:45;;;;;;;2.05;1.77;;;;;;;;;;5013054;28;20206;-76
2021/10/08 01:43:13;;;;;;;2.08;1.90;;;;;;;;;;5013212;28;20210;-77
2021/10/08 01:45:40;;;;;;;2.97;1.90;;;;;;;;;;5013098;28;20203;-78
2021/10/08 01:48:08;;;;;;;2.45;2.25;;;;;;;;;;5012801;28;20226;-78
2021/10/08 01:50:35;;;;;;;1.83;1.73;;;;;;;;;;5013142;28;20199;-78
2021/10/08 01:53:03;;;;;;;2.10;2.00;;;;;;;;;;5012656;28;20203;-78
2021/10/08 01:55:32;;;;;;;1.90;1.80;;;;;;;;;;5013179;28;20194;-79
2021/10/08 01:57:59;;;;;;;2.08;1.88;;;;;;;;;;5012551;28;20223;-77
2021/10/08 02:00:27;;;;;;;2.00;1.60;;;;;;;;;;5012850;28;20207;-78
2021/10/08 02:02:54;;;;;;;1.77;1.67;;;;;;;;;;5012808;28;20568;-78
2021/10/08 02:05:22;;;;;;;1.52;1.42;;;;;;;;;;5024253;28;20313;-79
2021/10/08 02:07:50;;;;;;;2.00;1.80;;;;;;;;;;5032329;28;20602;-76
2021/10/08 02:10:17;;;;;;;1.70;1.60;;;;;;;;;;5032585;28;20564;-78
2021/10/08 02:12:46;;;;;;;1.92;1.83;;;;;;;;;;5031107;28;20594;-77
2021/10/08 02:15:14;;;;;;;2.38;2.17;;;;;;;;;;5031263;28;20199;-77
2021/10/08 02:17:41;;;;;;;2.42;2.03;;;;;;;;;;5032205;28;20241;-78
2021/10/08 02:20:10;;;;;;;2.40;2.28;;;;;;;;;;5032073;28;20692;-78
2021/10/08 02:22:38;;;;;;;2.03;1.85;;;;;;;;;;5032183;28;20206;-78
2021/10/08 02:25:06;;;;;;;2.88;2.22;;;;;;;;;;5031981;28;20576;-77
2021/10/08 02:27:33;;;;;;;2.85;2.00;;;;;;;;;;5031589;28;20221;-78
2021/10/08 02:30:02;;;;;;;3.20;2.65;;;;;;;;;;5031878;28;20577;-78
2021/10/08 02:32:30;;;;;;;2.35;2.20;;;;;;;;;;5032355;28;20281;-78
2021/10/08 02:34:57;;;;;;;2.75;2.55;;;;;;;;;;5031892;28;20209;-77
2021/10/08 02:37:25;;;;;;;2.60;2.40;;;;;;;;;;5031944;28;20234;-77
2021/10/08 02:39:52;;;;;;;2.78;2.58;;;;;;;;;;5032895;28;20669;-78
2021/10/08 02:42:19;;;;;;;2.08;1.90;;;;;;;;;;5032738;28;20191;-77
2021/10/08 02:44:47;;;;;;;2.47;2.33;;;;;;;;;;5026588;28;20226;-78
2021/10/08 02:47:16;;;;;;;2.50;2.30;;;;;;;;;;5019194;28;20233;-78
2021/10/08 02:49:43;;;;;;;2.60;2.40;;;;;;;;;;5019662;28;20195;-79
2021/10/08 02:52:11;;;;;;;2.63;2.42;;;;;;;;;;5019575;28;20197;-79
2021/10/08 02:54:38;;;;;;;5.20;2.40;;;;;;;;;;5018953;28;20282;-79
2021/10/08 02:57:05;;;;;;;2.63;2.28;;;;;;;;;;5039065;28;20218;-78
2021/10/08 02:59:33;;;;;;;2.72;2.53;;;;;;;;;;5039110;28;20206;-78
2021/10/08 03:02:00;;;;;;;2.58;2.38;;;;;;;;;;5038327;28;20206;-78
2021/10/08 03:04:29;;;;;;;2.40;2.20;;;;;;;;;;5035521;28;20226;-78
2021/10/08 03:06:57;;;;;;;2.95;2.75;;;;;;;;;;5019722;28;20229;-78
2021/10/08 03:09:24;;;;;;;2.10;2.00;;;;;;;;;;5019468;28;20188;-77
2021/10/08 03:11:53;;;;;;;2.00;1.90;;;;;;;;;;5019789;28;20210;-79
2021/10/08 03:14:20;;;;;;;3.28;2.85;;;;;;;;;;5019426;28;20654;-78
2021/10/08 03:16:48;;;;;;;2.67;2.47;;;;;;;;;;5038870;28;20229;-79
2021/10/08 03:19:15;;;;;;;3.03;2.83;;;;;;;;;;5038861;28;20207;-78
2021/10/08 03:21:44;;;;;;;3.00;2.80;;;;;;;;;;5039136;28;20182;-78
2021/10/08 03:24:12;;;;;;;3.72;3.42;;;;;;;;;;5031596;28;20210;-79
2021/10/08 03:26:39;;;;;;;3.33;3.03;;;;;;;;;;4999245;28;20210;-78
2021/10/08 03:29:07;;;;;;;3.75;3.45;;;;;;;;;;4999675;28;20254;-78
2021/10/08 03:31:35;;;;;;;3.10;2.88;;;;;;;;;;5000004;28;20191;-78
2021/10/08 03:34:03;;;;;;;3.60;3.30;;;;;;;;;;4999943;28;20207;-78
2021/10/08 03:36:38;;;;;;;3.17;2.90;;;;;;;;;;5037373;28;20183;-78
2021/10/08 03:39:07;;;;;;;2.83;2.63;;;;;;;;;;5039530;28;20194;-82
2021/10/08 03:41:36;;;;;;;3.85;3.50;;;;;;;;;;5039500;28;20206;-78
2021/10/08 03:44:04;;;;;;;4.35;3.95;;;;;;;;;;5027623;28;20214;-79
2021/10/08 03:46:37;;;;;;;4.40;3.22;;;;;;;;;;5023054;28;20599;-77
2021/10/08 03:49:15;;;;;;;3.50;3.20;;;;;;;;;;5035941;28;20282;-78
2021/10/08 03:51:44;;;;;;;3.38;3.08;;;;;;;;;;5039442;28;20186;-78
2021/10/08 03:54:14;;;;;;;3.97;3.67;;;;;;;;;;5039023;28;20187;-78
2021/10/08 03:56:42;;;;;;;3.60;3.25;;;;;;;;;;5036141;28;20183;-78
2021/10/08 03:59:10;;;;;;;4.07;3.78;;;;;;;;;;5035256;28;20213;-78
2021/10/08 04:01:37;;;;;;;3.67;2.90;;;;;;;;;;5034051;28;20187;-78
2021/10/08 04:04:07;;;;;;;3.53;3.03;;;;;;;;;;5035385;28;20195;-78
2021/10/08 04:06:35;;;;;;;3.85;3.10;;;;;;;;;;5034948;28;20213;-78
2021/10/08 04:09:07;;;;;;;4.60;4.20;;;;;;;;;;5035078;28;20206;-78
2021/10/08 04:11:36;;;;;;;3.47;3.25;;;;;;;;;;5031864;28;20194;-78
2021/10/08 04:14:03;;;;;;;4.30;3.90;;;;;;;;;;5034400;28;20297;-78
2021/10/08 04:16:33;;;;;;;3.40;3.10;;;;;;;;;;5034315;28;20445;-78
2021/10/08 04:19:00;;;;;;;4.25;3.80;;;;;;;;;;5034431;28;20296;-77
2021/10/08 04:21:28;;;;;;;4.30;3.72;;;;;;;;;;5034647;28;20207;-78
2021/10/08 04:23:55;;;;;;;3.97;3.58;;;;;;;;;;5034594;28;20579;-78
2021/10/08 04:26:23;;;;;;;3.42;3.13;;;;;;;;;;5034658;28;20236;-77
2021/10/08 04:28:51;;;;;;;3.67;3.20;;;;;;;;;;5034241;28;20226;-77
2021/10/08 04:31:19;;;;;;;3.80;3.45;;;;;;;;;;5022859;28;20195;-77
2021/10/08 04:33:46;;;;;;;3.22;2.95;;;;;;;;;;5020254;28;20205;-78
2021/10/08 04:36:14;;;;;;;3.33;3.08;;;;;;;;;;5034124;28;20225;-78
2021/10/08 04:38:41;;;;;;;3.42;3.13;;;;;;;;;;5033982;28;20229;-78
2021/10/08 04:41:08;;;;;;;3.50;3.20;;;;;;;;;;5030763;28;20206;-78
2021/10/08 04:43:36;;;;;;;4.55;4.15;;;;;;;;;;5014350;28;20211;-77
2021/10/08 04:46:05;;;;;;;4.43;4.03;;;;;;;;;;5014113;28;20216;-77
2021/10/08 04:48:32;;;;;;;4.13;3.72;;;;;;;;;;5013148;28;20219;-78
2021/10/08 04:51:00;;;;;;;4.07;3.60;;;;;;;;;;5015144;28;20219;-77
2021/10/08 04:53:27;;;;;;;5.03;3.58;;;;;;;;;;5013287;28;20209;-77
2021/10/08 04:55:55;;;;;;;4.20;3.42;;;;;;;;;;5014872;28;20194;-78
2021/10/08 04:58:22;;;;;;;3.22;3.00;;;;;;;;;;5014124;28;20226;-78
2021/10/08 05:00:50;;;;;;;7.07;3.67;;;;;;;;;;5014580;28;20207;-77
2021/10/08 05:03:20;;;;;;;4.05;3.58;;;;;;;;;;5014229;28;20207;-78
2021/10/08 05:05:50;;;;;;;3.70;3.40;;;;;;;;;;5014332;28;20607;-77
2021/10/08 05:08:21;;;;;;;3.28;2.97;;;;;;;;;;5013387;28;20313;-77
2021/10/08 05:10:50;;;;;;;2.78;2.53;;;;;;;;;;5014090;28;20191;-77
2021/10/08 05:13:17;;;;;;;2.63;2.42;;;;;;;;;;5014406;28;20200;-77
2021/10/08 05:15:45;;;;;;;3.30;3.10;;;;;;;;;;5013417;28;20664;-78
2021/10/08 05:18:13;;;;;;;2.63;2.40;;;;;;;;;;5032805;28;20237;-77
2021/10/08 05:20:42;;;;;;;2.40;2.22;;;;;;;;;;5023920;28;20211;-77
2021/10/08 05:23:09;;;;;;;2.30;2.10;;;;;;;;;;5009510;28;20206;-78
2021/10/08 05:25:38;;;;;;;3.70;2.33;;;;;;;;;;5014529;28;20213;-78
2021/10/08 05:28:06;;;;;;;2.00;1.90;;;;;;;;;;5014216;28;20222;-78
2021/10/08 05:30:33;;;;;;;1.80;1.70;;;;;;;;;;5014534;28;20211;-77
2021/10/08 05:33:01;;;;;;;2.00;1.90;;;;;;;;;;5014200;28;20199;-79
2021/10/08 05:35:28;;;;;;;2.92;2.72;;;;;;;;;;5014413;28;20217;-78
2021/10/08 05:37:57;;;;;;;2.15;2.05;;;;;;;;;;5014424;28;20219;-79
2021/10/08 05:40:26;;;;;;;1.98;1.80;;;;;;;;;;5014975;28;20191;-78
2021/10/08 05:42:53;;;;;;;2.65;2.40;;;;;;;;;;5014513;28;20202;-78
2021/10/08 05:45:21;;;;;;;1.85;1.75;;;;;;;;;;5014764;28;20191;-79
2021/10/08 05:47:48;;;;;;;3.38;3.13;;;;;;;;;;5013266;28;20241;-78
2021/10/08 05:50:16;;;;;;;3.08;2.88;;;;;;;;;;5013922;28;20207;-78
2021/10/08 05:52:43;;;;;;;3.28;3.05;;;;;;;;;;5013973;28;20211;-78
2021/10/08 05:55:12;;;;;;;3.97;3.67;;;;;;;;;;5011299;28;20221;-78
2021/10/08 05:57:39;;;;;;;3.90;3.60;;;;;;;;;;4994624;28;20234;-78
2021/10/08 06:00:08;;;;;;;4.30;3.95;;;;;;;;;;4994477;28;20200;-78
2021/10/08 06:02:36;;;;;;;4.30;3.92;;;;;;;;;;4994248;28;20214;-78
2021/10/08 06:05:04;;;;;;;3.67;3.38;;;;;;;;;;4994551;28;20847;-78
2021/10/08 06:07:32;;;;;;;3.47;3.17;;;;;;;;;;4994521;28;20231;-80
2021/10/08 06:09:59;;;;;;;2.70;2.50;;;;;;;;;;4994889;28;20188;-78
2021/10/08 06:12:28;;;;;;;1.80;1.70;;;;;;;;;;4994339;28;20211;-78
2021/10/08 06:14:55;;;;;;;2.60;2.40;;;;;;;;;;4994761;28;20207;-78
2021/10/08 06:17:23;;;;;;;2.72;2.53;;;;;;;;;;4993866;28;20232;-78
2021/10/08 06:19:50;;;;;;;3.55;3.28;;;;;;;;;;4994149;28;20206;-79
2021/10/08 06:22:17;;;;;;;4.20;3.75;;;;;;;;;;4994568;28;20188;-78
2021/10/08 06:24:45;;;;;;;3.42;3.13;;;;;;;;;;4996737;28;20207;-78
2021/10/08 06:27:12;;;;;;;5.20;4.72;;;;;;;;;;5013465;28;20237;-79
2021/10/08 06:29:41;;;;;;;4.82;4.18;;;;;;;;;;5020958;28;20194;-78
2021/10/08 06:32:08;;;;;;;4.35;4.00;;;;;;;;;;5025058;28;20202;-79
2021/10/08 06:34:36;;;;;;;5.13;4.70;;;;;;;;;;5033419;28;20190;-78
2021/10/08 06:37:04;;;;;;;5.15;4.57;;;;;;;;;;5033191;28;20225;-77
2021/10/08 06:39:31;;;;;;;4.75;4.32;;;;;;;;;;5032616;28;20211;-79
2021/10/08 06:41:59;;;;;;;5.97;5.28;;;;;;;;;;5029497;28;20214;-78
2021/10/08 06:44:27;;;;;;;4.18;3.88;;;;;;;;;;5004828;28;20270;-80
2021/10/08 06:46:56;;;;;;;3.50;3.20;;;;;;;;;;5003540;28;20226;-79
2021/10/08 06:49:23;;;;;;;4.68;4.28;;;;;;;;;;5011334;28;20577;-79
2021/10/08 06:51:50;;;;;;;4.05;3.65;;;;;;;;;;5009772;28;20203;-79
2021/10/08 06:54:18;;;;;;;4.30;3.95;;;;;;;;;;5013817;28;20202;-78
2021/10/08 06:56:45;;;;;;;4.25;3.85;;;;;;;;;;5026483;28;20198;-80
2021/10/08 06:59:13;;;;;;;3.90;3.60;;;;;;;;;;5026142;28;20191;-79
2021/10/08 07:01:41;;;;;;;4.20;3.85;;;;;;;;;;5013503;28;20207;-79
2021/10/08 07:04:10;;;;;;;4.68;4.28;;;;;;;;;;5013757;28;20199;-79
2021/10/08 07:06:37;;;;;;;4.45;4.07;;;;;;;;;;5026011;28;20225;-79
2021/10/08 07:09:05;;;;;;;2.88;2.67;;;;;;;;;;5033201;28;20206;-78
2021/10/08 07:11:32;;;;;;;2.75;2.55;;;;;;;;;;5032664;28;20202;-79
2021/10/08 07:14:00;;;;;;;2.88;2.63;;;;;;;;;;5031733;28;20221;-80
2021/10/08 07:16:27;;;;;;;2.25;2.05;;;;;;;;;;5021849;28;20202;-79
2021/10/08 07:18:56;;;;;;;2.60;2.40;;;;;;;;;;5020028;28;20222;-79
2021/10/08 07:21:25;;;;;;;2.00;1.90;;;;;;;;;;5023007;28;20191;-79
2021/10/08 07:23:53;;;;;;;1.80;1.70;;;;;;;;;;5001016;28;20196;-79
2021/10/08 07:26:22;;;;;;;2.63;2.03;;;;;;;;;;4996194;28;20204;-79
2021/10/08 07:28:50;;;;;;;3.00;2.80;;;;;;;;;;5012451;28;20219;-81
2021/10/08 07:31:17;;;;;;;3.70;3.40;;;;;;;;;;5012657;28;20213;-79
2021/10/08 07:33:45;;;;;;;4.38;3.63;;;;;;;;;;5002330;28;20188;-80
2021/10/08 07:36:14;;;;;;;3.97;3.50;;;;;;;;;;5005206;28;20214;-79
2021/10/08 07:38:43;;;;;;;2.67;2.47;;;;;;;;;;5016795;28;20223;-79
2021/10/08 07:41:11;;;;;;;5.60;3.80;;;;;;;;;;5016342;28;20207;-79
2021/10/08 07:43:40;;;;;;;4.35;3.97;;;;;;;;;;5016406;28;20187;-79
2021/10/08 07:46:08;;;;;;;3.65;3.28;;;;;;;;;;5015642;28;20183;-79
2021/10/08 07:48:36;;;;;;;3.83;3.53;;;;;;;;;;5031397;28;20236;-79
2021/10/08 07:51:04;;;;;;;3.97;3.35;;;;;;;;;;5033703;28;20195;-80
2021/10/08 07:53:32;;;;;;;3.95;3.55;;;;;;;;;;5036030;28;20688;-79
2021/10/08 07:56:01;;;;;;;3.28;3.08;;;;;;;;;;5034983;28;20229;-79
2021/10/08 07:58:29;;;;;;;3.55;3.25;;;;;;;;;;5035538;28;20221;-79
2021/10/08 08:00:58;;;;;;;2.83;2.63;;;;;;;;;;5018822;28;20682;-79
2021/10/08 08:03:25;;;;;;;3.42;3.20;;;;;;;;;;5010624;28;20195;-79
2021/10/08 08:05:54;;;;;;;4.47;4.00;;;;;;;;;;5016483;28;20183;-79
2021/10/08 08:08:23;;;;;;;4.07;3.67;;;;;;;;;;5015812;28;20231;-78
2021/10/08 08:10:51;;;;;;;3.75;3.45;;;;;;;;;;5016402;28;20188;-79
2021/10/08 08:13:19;;;;;;;5.03;4.63;;;;;;;;;;5015946;28;20211;-79
2021/10/08 08:15:47;;;;;;;3.38;3.08;;;;;;;;;;5023682;28;20203;-80
2021/10/08 08:18:14;;;;;;;2.60;2.40;;;;;;;;;;5016413;28;20241;-79
2021/10/08 08:20:42;;;;;;;3.08;2.78;;;;;;;;;;5015971;28;20206;-79
2021/10/08 08:23:10;;;;;;;3.13;2.92;;;;;;;;;;5016484;28;20187;-78
2021/10/08 08:25:37;;;;;;;2.75;2.55;;;;;;;;;;5015871;28;20207;-79
2021/10/08 08:28:05;;;;;;;2.40;2.13;;;;;;;;;;5025310;28;20226;-79
2021/10/08 08:30:37;;;;;;;2.10;2.00;;;;;;;;;;5036318;28;20191;-79
2021/10/08 08:33:05;;;;;;;1.70;1.60;;;;;;;;;;5036062;28;20190;-79
2021/10/08 08:35:32;;;;;;;2.90;1.80;;;;;;;;;;5030086;28;20184;-79
2021/10/08 08:38:00;;;;;;;2.83;2.47;;;;;;;;;;5016221;28;20215;-80
2021/10/08 08:40:29;;;;;;;2.47;2.28;;;;;;;;;;5015900;28;20207;-79
2021/10/08 08:42:58;;;;;;;2.63;2.13;;;;;;;;;;5016079;28;20191;-79
2021/10/08 08:45:25;;;;;;;2.38;2.17;;;;;;;;;;5016045;28;20190;-79
2021/10/08 08:48:05;;;;;;;2.08;1.98;;;;;;;;;;5013011;28;20227;-79
2021/10/08 08:50:36;;;;;;;2.28;2.08;;;;;;;;;;5015347;28;20193;-79
2021/10/08 08:53:04;;;;;;;2.25;2.15;;;;;;;;;;5015585;28;20218;-79
2021/10/08 08:55:32;;;;;;;2.00;1.90;;;;;;;;;;5015617;28;20866;-79
2021/10/08 08:57:59;;;;;;;3.25;2.20;;;;;;;;;;5015142;28;20219;-80
2021/10/08 09:00:27;;;;;;;1.70;1.60;;;;;;;;;;5015706;28;20203;-80
2021/10/08 09:02:57;;;;;;;2.90;2.40;;;;;;;;;;5015718;28;20187;-80
2021/10/08 09:05:30;;;;;;;2.10;1.90;;;;;;;;;;5015806;28;20190;-80
2021/10/08 09:07:59;;;;;;;2.60;2.40;;;;;;;;;;5015071;28;20223;-79
2021/10/08 09:10:29;;;;;;;2.72;2.53;;;;;;;;;;5015743;28;20187;-79
2021/10/08 09:12:58;;;;;;;2.20;2.00;;;;;;;;;;5014643;28;20207;-80
2021/10/08 09:15:28;;;;;;;1.60;1.50;;;;;;;;;;5015264;28;20206;-79
2021/10/08 09:18:07;;;;;;;2.05;1.90;;;;;;;;;;5014774;28;20239;-79
2021/10/08 09:20:36;;;;;;;2.17;1.90;;;;;;;;;;5015010;28;20562;-81
2021/10/08 09:23:18;;;;;;;2.78;1.98;;;;;;;;;;5009020;28;20199;-79
2021/10/08 09:25:46;;;;;;;2.13;2.00;;;;;;;;;;5015076;28;20202;-79
2021/10/08 09:28:13;;;;;;;2.70;2.45;;;;;;;;;;5014674;28;20309;-80
2021/10/08 09:30:45;;;;;;;2.00;1.90;;;;;;;;;;5014602;28;20674;-80
2021/10/08 09:33:15;;;;;;;2.20;2.00;;;;;;;;;;5014855;28;20208;-80
2021/10/08 09:35:45;;;;;;;1.80;1.70;;;;;;;;;;5014534;28;20194;-80
2021/10/08 09:38:16;;;;;;;1.83;1.73;;;;;;;;;;5015157;28;20285;-80
2021/10/08 09:40:47;;;;;;;2.63;2.42;;;;;;;;;;5014748;28;20260;-80
2021/10/08 09:43:26;;;;;;;2.30;2.08;;;;;;;;;;5014835;28;20657;-80
2021/10/08 09:45:55;;;;;;;2.10;1.83;;;;;;;;;;5013818;28;20214;-79
2021/10/08 09:48:25;;;;;;;2.50;2.30;;;;;;;;;;5014794;28;20223;-79
2021/10/08 09:51:04;;;;;;;1.80;1.70;;;;;;;;;;5015324;28;20230;-79
2021/10/08 09:53:33;;;;;;;2.08;1.98;;;;;;;;;;5015440;28;20197;-80
2021/10/08 09:56:01;;;;;;;1.75;1.65;;;;;;;;;;5014703;28;20563;-80
2021/10/08 09:58:28;;;;;;;1.85;1.75;;;;;;;;;;4999216;28;20220;-80
2021/10/08 10:01:01;;;;;;;2.00;1.85;;;;;;;;;;4996655;28;20206;-80
2021/10/08 10:03:30;;;;;;;7.93;2.65;;;;;;;;;;5013496;28;20297;-79
2021/10/08 10:06:04;;;;;;;1.92;1.83;;;;;;;;;;5014679;28;20198;-80
2021/10/08 10:08:32;;;;;;;2.38;2.17;;;;;;;;;;5014443;28;20231;-80
2021/10/08 10:11:00;;;;;;;2.25;2.10;;;;;;;;;;5014262;28;20206;-79
2021/10/08 10:13:27;;;;;;;2.17;2.08;;;;;;;;;;5014249;28;20230;-80
2021/10/08 10:15:55;;;;;;;2.38;2.17;;;;;;;;;;5014559;28;20202;-79
2021/10/08 10:18:22;;;;;;;2.05;1.95;;;;;;;;;;5013879;28;20234;-79
2021/10/08 10:20:52;;;;;;;6.03;2.78;;;;;;;;;;5010617;28;20214;-81
2021/10/08 10:23:23;;;;;;;4.88;3.78;;;;;;;;;;4995533;28;20199;-79
2021/10/08 10:25:53;;;;;;;2.42;2.22;;;;;;;;;;4995061;28;20230;-80
2021/10/08 10:28:21;;;;;;;3.25;2.92;;;;;;;;;;4995147;28;20227;-81
2021/10/08 10:30:50;;;;;;;3.55;3.25;;;;;;;;;;4995520;28;20200;-80
2021/10/08 10:33:25;;;;;;;2.90;2.70;;;;;;;;;;4995323;28;20199;-80
2021/10/08 10:35:56;;;;;;;3.03;2.83;;;;;;;;;;4994863;28;20257;-80
2021/10/08 10:38:34;;;;;;;4.30;3.08;;;;;;;;;;4994726;28;20274;-81
2021/10/08 10:41:21;;;;;;;4.38;3.97;;;;;;;;;;4996099;28;20200;-81
2021/10/08 10:43:52;;;;;;;4.38;4.03;;;;;;;;;;4992074;28;20206;-80
2021/10/08 10:46:40;;;;;;;2.55;2.35;;;;;;;;;;4995768;28;20249;-80
2021/10/08 10:49:36;;;;;;;2.90;2.70;;;;;;;;;;4995366;28;20694;-81
2021/10/08 10:52:27;;;;;;;3.80;3.50;;;;;;;;;;4996094;28;20230;-81
2021/10/08 10:55:09;;;;;;;3.70;3.40;;;;;;;;;;4993384;28;20206;-81
2021/10/08 10:58:04;;;;;;;3.28;2.97;;;;;;;;;;4995154;28;20607;-81
2021/10/08 11:00:44;;;;;;;2.60;2.50;;;;;;;;;;4995742;28;20669;-81
2021/10/08 11:03:18;;;;;;;3.75;3.40;;;;;;;;;;4995472;28;20183;-81
2021/10/08 11:06:18;;;;;;;4.28;3.97;;;;;;;;;;4995526;28;20187;-81
2021/10/08 11:09:26;;;;;;;3.97;3.65;;;;;;;;;;4999299;28;20721;-79
2021/10/08 11:12:34;;;;;;;3.80;3.30;;;;;;;;;;4992541;28;20203;-80
2021/10/08 11:15:36;;;;;;;3.80;3.50;;;;;;;;;;4999028;28;20626;-80
2021/10/08 11:18:04;;;;;;;3.83;3.53;;;;;;;;;;4996406;28;20265;-81
2021/10/08 11:20:46;;;;;;;4.22;3.83;;;;;;;;;;4999461;28;20186;-81
2021/10/08 11:23:29;;;;;;;3.75;3.45;;;;;;;;;;4999343;28;20214;-82
2021/10/08 11:25:58;;;;;;;4.03;3.47;;;;;;;;;;5000171;28;20207;-81
2021/10/08 11:28:33;;;;;;;3.22;3.03;;;;;;;;;;4999265;28;20465;-82
2021/10/08 11:31:01;;;;;;;3.70;3.40;;;;;;;;;;4999004;28;20223;-81
2021/10/08 11:33:43;;;;;;;4.28;3.88;;;;;;;;;;4999274;28;20204;-81
2021/10/08 11:36:21;;;;;;;4.32;3.38;;;;;;;;;;4999062;28;20226;-81
2021/10/08 11:38:53;;;;;;;3.95;3.65;;;;;;;;;;4998011;28;20733;-80
2021/10/08 11:41:23;;;;;;;5.82;5.22;;;;;;;;;;4998618;28;20652;-80
2021/10/08 11:44:15;;;;;;;5.03;4.57;;;;;;;;;;4999290;28;20203;-80
2021/10/08 11:46:54;;;;;;;5.25;4.80;;;;;;;;;;4998648;28;20237;-81
2021/10/08 11:49:39;;;;;;;4.65;4.25;;;;;;;;;;4999043;28;20247;-81
2021/10/08 11:52:07;;;;;;;5.50;5.00;;;;;;;;;;4998030;28;20203;-82
2021/10/08 11:54:34;;;;;;;5.30;4.85;;;;;;;;;;4998545;28;20267;-81
2021/10/08 11:57:04;;;;;;;4.32;3.92;;;;;;;;;;4998396;28;20729;-81
2021/10/08 11:59:33;;;;;;;5.15;4.75;;;;;;;;;;4998358;28;20203;-81
2021/10/08 12:02:13;;;;;;;5.20;4.80;;;;;;;;;;4998379;28;20210;-81
2021/10/08 12:04:42;;;;;;;4.57;4.25;;;;;;;;;;4998572;28;20203;-81
2021/10/08 12:07:13;;;;;;;4.13;3.80;;;;;;;;;;4997778;28;20231;-80
2021/10/08 12:09:40;;;;;;;5.95;5.35;;;;;;;;;;4997850;28;20231;-80
2021/10/08 12:12:14;;;;;;;4.97;4.57;;;;;;;;;;4998333;28;20215;-81
2021/10/08 12:14:48;;;;;;;6.32;5.82;;;;;;;;;;4999687;28;20200;-80
2021/10/08 12:17:19;;;;;;;5.45;4.95;;;;;;;;;;4998730;28;20228;-79
2021/10/08 12:19:46;;;;;;;5.18;4.78;;;;;;;;;;4998535;28;20195;-81
2021/10/08 12:22:23;;;;;;;5.72;5.22;;;;;;;;;;4998307;28;20208;-80
2021/10/08 12:24:52;;;;;;;4.97;4.53;;;;;;;;;;4997320;28;20620;-80
2021/10/08 12:27:20;;;;;;;6.68;6.05;;;;;;;;;;4996945;28;20234;-78
2021/10/08 12:29:51;;;;;;;6.50;5.25;;;;;;;;;;4996999;28;20228;-79
2021/10/08 12:32:19;;;;;;;4.82;4.43;;;;;;;;;;4997946;28;20203;-81
2021/10/08 12:34:49;;;;;;;4.50;4.13;;;;;;;;;;4997419;28;20207;-81
2021/10/08 12:37:19;;;;;;;4.10;3.80;;;;;;;;;;4997694;28;20239;-81
2021/10/08 12:40:08;;;;;;;4.38;4.07;;;;;;;;;;4998454;28;20239;-81
2021/10/08 12:42:38;;;;;;;4.20;3.90;;;;;;;;;;4998041;28;20230;-81
2021/10/08 12:45:20;;;;;;;5.75;5.25;;;;;;;;;;4997994;28;20207;-79
2021/10/08 12:47:51;;;;;;;5.93;5.43;;;;;;;;;;4997626;28;20644;-80
2021/10/08 12:50:22;;;;;;;5.45;5.05;;;;;;;;;;4997692;28;20228;-80
2021/10/08 12:52:51;;;;;;;4.75;4.40;;;;;;;;;;4998052;28;20207;-81
2021/10/08 12:55:21;;;;;;;4.70;4.30;;;;;;;;;;4998058;28;20263;-81
2021/10/08 12:58:07;;;;;;;5.18;4.78;;;;;;;;;;4995517;28;20228;-80
2021/10/08 13:00:39;;;;;;;3.40;3.13;;;;;;;;;;4997791;28;20283;-80
2021/10/08 13:03:09;;;;;;;3.53;3.22;;;;;;;;;;4997875;28;20206;-81
2021/10/08 13:05:41;;;;;;;5.03;4.63;;;;;;;;;;4997775;28;20207;-79
2021/10/08 13:08:17;;;;;;;4.70;4.30;;;;;;;;;;4997508;28;20230;-80
2021/10/08 13:11:07;;;;;;;5.38;4.88;;;;;;;;;;4996746;28;20219;-79
2021/10/08 13:13:38;;;;;;;5.38;4.95;;;;;;;;;;4992064;28;20636;-80
2021/10/08 13:16:12;;;;;;;4.30;4.00;;;;;;;;;;5016344;28;20679;-81
2021/10/08 13:18:41;;;;;;;3.38;3.08;;;;;;;;;;5016700;28;20235;-79
2021/10/08 13:21:08;;;;;;;4.55;4.18;;;;;;;;;;5016480;28;20198;-81
2021/10/08 13:23:36;;;;;;;5.38;4.88;;;;;;;;;;5016500;28;20203;-80
2021/10/08 13:26:04;;;;;;;4.57;4.18;;;;;;;;;;5017072;28;20218;-81
2021/10/08 13:28:31;;;;;;;5.90;3.63;;;;;;;;;;5003600;28;20228;-80
2021/10/08 13:31:01;;;;;;;4.97;4.57;;;;;;;;;;4995916;28;20224;-80
2021/10/08 13:33:33;;;;;;;4.10;3.80;;;;;;;;;;4996691;28;20207;-80
2021/10/08 13:36:02;;;;;;;5.15;4.55;;;;;;;;;;5008047;28;20372;-80
2021/10/08 13:38:31;;;;;;;4.35;4.05;;;;;;;;;;5016240;28;20233;-79
2021/10/08 13:41:01;;;;;;;5.22;4.72;;;;;;;;;;5016940;28;20199;-81
2021/10/08 13:43:30;;;;;;;4.97;4.57;;;;;;;;;;5016263;28;20692;-80
2021/10/08 13:45:57;;;;;;;4.38;4.03;;;;;;;;;;5016264;28;20282;-80
2021/10/08 13:48:25;;;;;;;3.65;3.35;;;;;;;;;;5016129;28;20226;-80
2021/10/08 13:50:54;;;;;;;5.15;4.68;;;;;;;;;;5016028;28;20223;-80
2021/10/08 13:53:21;;;;;;;4.88;4.38;;;;;;;;;;5015937;28;20206;-80
2021/10/08 13:55:52;;;;;;;5.03;4.63;;;;;;;;;;5015672;28;20669;-80
2021/10/08 13:58:22;;;;;;;5.32;4.82;;;;;;;;;;5015934;28;20223;-81
2021/10/08 14:00:51;;;;;;;3.85;3.55;;;;;;;;;;5016409;28;20206;-80
2021/10/08 14:03:26;;;;;;;5.05;4.55;;;;;;;;;;5016054;28;20207;-80
2021/10/08 14:06:15;;;;;;;4.72;4.32;;;;;;;;;;5016100;28;20213;-81
2021/10/08 14:08:47;;;;;;;5.13;4.72;;;;;;;;;;5016915;28;20359;-80
2021/10/08 14:11:14;;;;;;;4.63;4.25;;;;;;;;;;5012241;28;20223;-80
2021/10/08 14:13:42;;;;;;;3.47;3.17;;;;;;;;;;4996100;28;20204;-80
2021/10/08 14:16:09;;;;;;;3.97;3.58;;;;;;;;;;4996167;28;20659;-80
2021/10/08 14:18:37;;;;;;;4.20;3.90;;;;;;;;;;4995884;28;20318;-80
2021/10/08 14:21:05;;;;;;;4.00;3.70;;;;;;;;;;4995956;28;20203;-80
2021/10/08 14:23:33;;;;;;;4.80;4.40;;;;;;;;;;4996292;28;20206;-80
2021/10/08 14:26:01;;;;;;;5.72;5.13;;;;;;;;;;4995964;28;20215;-79
2021/10/08 14:28:30;;;;;;;5.63;5.13;;;;;;;;;;4996318;28;20249;-80
2021/10/08 14:30:58;;;;;;;5.43;4.93;;;;;;;;;;4995745;28;20572;-80
2021/10/08 14:33:25;;;;;;;3.97;3.67;;;;;;;;;;4996121;28;20192;-80
2021/10/08 14:35:53;;;;;;;5.20;4.70;;;;;;;;;;4995692;28;20693;-80
2021/10/08 14:38:22;;;;;;;7.00;6.32;;;;;;;;;;4995726;28;20230;-79
2021/10/08 14:40:52;;;;;;;6.07;5.47;;;;;;;;;;4995518;28;20271;-80
2021/10/08 14:43:20;;;;;;;6.45;5.70;;;;;;;;;;4996001;28;20203;-80
2021/10/08 14:45:47;;;;;;;5.45;5.00;;;;;;;;;;4995508;28;20291;-80
2021/10/08 14:48:15;;;;;;;4.30;3.90;;;;;;;;;;4995459;28;20231;-79
2021/10/08 14:50:42;;;;;;;3.88;3.58;;;;;;;;;;4995493;28;20211;-81
2021/10/08 14:53:10;;;;;;;5.30;4.90;;;;;;;;;;4995819;28;20250;-80
2021/10/08 14:55:58;;;;;;;4.53;4.13;;;;;;;;;;4995228;28;20200;-80
2021/10/08 14:58:25;;;;;;;4.85;4.45;;;;;;;;;;4995514;28;20339;-80
2021/10/08 15:00:53;;;;;;;4.57;4.18;;;;;;;;;;4995018;28;20199;-80